Time;durP1;ratioP1;P1;durP2;ratioP2;P2;SDS_P1;SDS_P2;PMS_P1;PMS_P2;Temp;Humidity;BMP_temperature;BMP_pressure;BME280_temperature;BME280_humidity;BME280_pressure;Samples;Min_cycle;Max_cycle;Signal;HPM_P1;HPM_P2
2022/07/13 00:00:12;;;;;;;1.55;0.65;;;;;;;15.64;65.24;98648.67;1687266;85;20997;-43
2022/07/13 00:02:39;;;;;;;1.57;0.78;;;;;;;15.60;65.46;98643.85;1687713;85;21113;-42
2022/07/13 00:05:08;;;;;;;1.52;0.70;;;;;;;15.56;65.64;98630.24;1687193;85;23135;-43
2022/07/13 00:07:36;;;;;;;1.00;0.62;;;;;;;15.54;65.75;98636.70;1687444;85;21002;-43
2022/07/13 00:10:04;;;;;;;0.80;0.70;;;;;;;15.53;65.94;98627.56;1687243;85;21025;-43
2022/07/13 00:12:31;;;;;;;1.12;0.80;;;;;;;15.52;66.02;98627.38;1687340;85;20989;-43
2022/07/13 00:14:58;;;;;;;5.35;0.80;;;;;;;15.52;66.04;98631.47;1687403;85;21014;-42
2022/07/13 00:17:25;;;;;;;2.62;0.70;;;;;;;15.50;66.08;98625.60;1687299;85;21131;-43
2022/07/13 00:19:53;;;;;;;1.95;0.90;;;;;;;15.49;66.16;98620.73;1687175;85;21563;-42
2022/07/13 00:22:20;;;;;;;4.42;0.75;;;;;;;15.50;66.18;98618.77;1687386;85;21069;-42
2022/07/13 00:24:46;;;;;;;2.15;0.82;;;;;;;15.50;66.10;98603.16;1687378;85;20997;-43
2022/07/13 00:27:14;;;;;;;1.60;0.90;;;;;;;15.49;66.18;98609.05;1687316;85;21105;-42
2022/07/13 00:29:41;;;;;;;2.45;1.00;;;;;;;15.47;66.24;98603.22;1688296;83;23154;-43
2022/07/13 00:32:08;;;;;;;2.85;0.88;;;;;;;15.46;66.39;98600.30;1720571;83;21004;-43
2022/07/13 00:34:35;;;;;;;1.37;0.68;;;;;;;15.45;66.38;98587.81;1691903;84;21015;-42
2022/07/13 00:37:03;;;;;;;2.37;0.60;;;;;;;15.44;66.39;98590.39;1691641;84;21043;-42
2022/07/13 00:39:30;;;;;;;1.82;0.70;;;;;;;15.45;66.26;98580.98;1691760;84;21016;-43
2022/07/13 00:41:57;;;;;;;2.27;0.95;;;;;;;15.46;66.33;98588.00;1691640;84;23178;-42
2022/07/13 00:44:24;;;;;;;2.10;0.78;;;;;;;15.46;66.15;98585.27;1691896;84;21592;-43
2022/07/13 00:46:54;;;;;;;1.92;0.70;;;;;;;15.50;66.22;98573.70;1691623;84;21574;-43
2022/07/13 00:49:22;;;;;;;1.27;0.98;;;;;;;15.47;66.00;98566.34;1691894;84;21499;-42
2022/07/13 00:51:50;;;;;;;4.10;0.90;;;;;;;15.46;66.11;98568.30;1691900;84;21548;-42
2022/07/13 00:54:20;;;;;;;1.52;0.80;;;;;;;15.43;65.98;98562.30;1691817;84;21851;-42
2022/07/13 00:56:48;;;;;;;2.35;1.05;;;;;;;15.45;66.13;98557.77;1692315;84;21538;-42
2022/07/13 00:59:15;;;;;;;1.40;0.95;;;;;;;15.44;66.43;98565.19;1691856;84;21024;-42
2022/07/13 01:01:42;;;;;;;1.77;0.90;;;;;;;15.44;66.98;98564.44;1691749;84;21007;-43
2022/07/13 01:04:10;;;;;;;4.25;1.00;;;;;;;15.39;67.63;98559.44;1692069;84;21492;-43
2022/07/13 01:06:37;;;;;;;2.27;0.80;;;;;;;15.33;68.37;98555.02;1691622;84;23153;-43
2022/07/13 01:09:04;;;;;;;2.45;0.80;;;;;;;15.26;68.79;98559.78;1691724;84;21062;-43
2022/07/13 01:11:32;;;;;;;2.27;0.75;;;;;;;15.18;69.44;98563.20;1691769;84;21047;-42
2022/07/13 01:14:00;;;;;;;3.12;1.05;;;;;;;15.11;69.74;98562.69;1691918;84;21095;-42
2022/07/13 01:16:27;;;;;;;1.50;0.75;;;;;;;15.05;69.84;98556.16;1691941;84;21095;-42
2022/07/13 01:18:54;;;;;;;1.60;1.02;;;;;;;15.01;70.40;98558.72;1666277;84;21866;-43
2022/07/13 01:21:21;;;;;;;1.22;0.90;;;;;;;14.96;71.10;98561.92;1691745;84;21113;-43
2022/07/13 01:23:49;;;;;;;2.92;1.07;;;;;;;14.91;71.39;98560.39;1691972;84;21014;-43
2022/07/13 01:26:17;;;;;;;3.55;1.20;;;;;;;14.85;71.50;98553.84;1720664;83;21040;-43
2022/07/13 01:28:46;;;;;;;1.22;0.80;;;;;;;14.79;71.85;98548.65;1720916;83;21039;-42
2022/07/13 01:31:13;;;;;;;1.67;1.00;;;;;;;14.75;72.38;98545.19;1681205;84;21570;-43
2022/07/13 01:33:40;;;;;;;1.62;0.82;;;;;;;14.70;72.54;98542.91;1690691;82;21568;-43
2022/07/13 01:36:07;;;;;;;2.15;0.75;;;;;;;14.67;73.03;98546.42;1734999;82;21599;-42
2022/07/13 01:38:35;;;;;;;2.62;0.95;;;;;;;14.63;73.11;98541.60;1735230;82;21536;-43
2022/07/13 01:41:02;;;;;;;2.60;0.95;;;;;;;14.60;73.25;98538.33;1735020;82;21057;-42
2022/07/13 01:43:30;;;;;;;2.40;0.90;;;;;;;14.57;73.34;98536.43;1735164;82;21236;-43
2022/07/13 01:45:57;;;;;;;1.25;0.80;;;;;;;14.54;73.35;98544.04;1735003;82;21002;-43
2022/07/13 01:48:24;;;;;;;3.72;1.22;;;;;;;14.50;73.61;98548.77;1735325;82;21480;-43
2022/07/13 01:50:52;;;;;;;2.98;1.00;;;;;;;14.50;73.87;98531.03;1735140;82;20993;-43
2022/07/13 01:53:19;;;;;;;1.60;0.70;;;;;;;14.49;74.03;98525.39;1735024;82;21344;-42
2022/07/13 01:55:46;;;;;;;3.02;0.95;;;;;;;14.48;73.54;98519.16;1735219;82;22017;-42
2022/07/13 01:58:13;;;;;;;2.77;0.80;;;;;;;14.46;73.96;98511.98;1734835;82;21462;-42
2022/07/13 02:00:40;;;;;;;2.60;0.90;;;;;;;14.45;73.84;98512.38;1735130;82;20974;-43
2022/07/13 02:03:09;;;;;;;4.42;0.98;;;;;;;14.44;73.66;98510.83;1735055;82;21081;-42
2022/07/13 02:05:38;;;;;;;2.10;1.00;;;;;;;14.48;73.92;98511.56;1735092;82;21503;-42
2022/07/13 02:08:06;;;;;;;2.00;1.22;;;;;;;14.52;73.76;98497.32;1734993;82;21762;-42
2022/07/13 02:10:35;;;;;;;2.37;1.00;;;;;;;14.55;73.50;98497.27;1734973;82;20997;-43
2022/07/13 02:13:06;;;;;;;2.15;0.80;;;;;;;14.56;73.67;98511.10;1734973;82;21591;-43
2022/07/13 02:15:33;;;;;;;2.45;0.70;;;;;;;14.54;73.71;98492.22;1735052;81;21606;-42
2022/07/13 02:18:00;;;;;;;2.08;0.70;;;;;;;14.55;73.77;98497.86;1735099;82;20974;-43
2022/07/13 02:20:29;;;;;;;2.80;0.90;;;;;;;14.59;73.93;98501.31;1735201;82;21496;-43
2022/07/13 02:22:58;;;;;;;1.57;1.12;;;;;;;14.63;73.67;98498.73;1735043;82;20946;-42
2022/07/13 02:25:27;;;;;;;1.10;0.72;;;;;;;14.60;73.48;98491.37;1734959;82;20926;-43
2022/07/13 02:27:54;;;;;;;3.22;1.00;;;;;;;14.57;73.68;98481.26;1735115;82;21029;-43
2022/07/13 02:30:21;;;;;;;2.33;0.93;;;;;;;14.56;73.83;98480.32;1734916;81;21034;-43
2022/07/13 02:32:49;;;;;;;2.72;1.00;;;;;;;14.57;73.88;98478.53;1735102;82;21120;-43
2022/07/13 02:35:16;;;;;;;1.75;0.80;;;;;;;14.55;73.94;98475.45;1734935;82;21016;-42
2022/07/13 02:37:43;;;;;;;1.27;0.78;;;;;;;14.50;74.16;98476.48;1735000;82;21029;-43
2022/07/13 02:40:16;;;;;;;3.92;0.98;;;;;;;14.44;74.13;98469.34;1734866;82;20969;-42
2022/07/13 02:42:40;;;;;;;1.80;0.82;;;;;;;14.49;73.86;98473.56;1733983;82;21034;-42
2022/07/13 02:45:08;;;;;;;1.37;0.90;;;;;;;14.49;73.86;98473.56;1734965;82;21213;-42
2022/07/13 02:47:36;;;;;;;3.25;0.93;;;;;;;14.47;74.34;98469.91;1735070;82;21006;-42
2022/07/13 02:50:04;;;;;;;4.78;0.80;;;;;;;14.46;74.56;98473.03;1735009;82;21029;-43
2022/07/13 02:52:31;;;;;;;6.12;0.85;;;;;;;14.49;74.71;98468.11;1735382;82;20976;-43
2022/07/13 02:54:58;;;;;;;3.17;0.80;;;;;;;14.50;74.56;98475.90;1735203;82;20986;-42
2022/07/13 02:57:26;;;;;;;1.05;0.65;;;;;;;14.48;74.61;98477.47;1735013;82;21115;-42
2022/07/13 02:59:55;;;;;;;4.13;0.80;;;;;;;14.41;74.66;98472.89;1735251;82;21069;-42
2022/07/13 03:02:22;;;;;;;2.22;0.98;;;;;;;14.46;74.84;98459.39;1735061;82;21484;-42
2022/07/13 03:04:49;;;;;;;1.60;1.00;;;;;;;14.46;74.92;98467.58;1735102;82;20970;-42
2022/07/13 03:07:18;;;;;;;1.25;0.70;;;;;;;14.44;75.07;98461.73;1734997;82;20994;-42
2022/07/13 03:09:46;;;;;;;2.25;0.60;;;;;;;14.43;75.04;98454.73;1735036;82;20934;-42
2022/07/13 03:12:15;;;;;;;2.00;0.80;;;;;;;14.46;75.08;98451.98;1734927;82;20933;-42
2022/07/13 03:14:42;;;;;;;1.02;0.70;;;;;;;14.50;74.93;98447.27;1735119;82;20918;-42
2022/07/13 03:17:09;;;;;;;3.75;0.90;;;;;;;14.51;75.03;98449.41;1734990;82;21037;-43
2022/07/13 03:19:36;;;;;;;1.35;0.70;;;;;;;14.50;75.02;98445.90;1735155;82;21037;-42
2022/07/13 03:22:04;;;;;;;1.40;0.80;;;;;;;14.53;75.07;98445.07;1734870;82;21210;-42
2022/07/13 03:24:32;;;;;;;1.77;0.90;;;;;;;14.55;74.96;98440.58;1735258;82;21490;-42
2022/07/13 03:26:59;;;;;;;2.05;0.60;;;;;;;14.54;75.14;98440.39;1735026;82;20961;-42
2022/07/13 03:29:27;;;;;;;2.40;0.75;;;;;;;14.51;75.13;98437.13;1735291;82;21524;-42
2022/07/13 03:31:55;;;;;;;0.60;0.60;;;;;;;14.55;75.08;98432.41;1742338;82;20996;-42
2022/07/13 03:34:22;;;;;;;1.30;0.75;;;;;;;14.57;75.05;98436.87;1748902;82;23144;-42
2022/07/13 03:36:50;;;;;;;2.22;0.60;;;;;;;14.55;75.14;98430.45;1749026;82;20958;-42
2022/07/13 03:39:18;;;;;;;1.02;0.70;;;;;;;14.57;75.24;98430.05;1748857;82;21056;-42
2022/07/13 03:41:45;;;;;;;0.98;0.72;;;;;;;14.55;75.30;98427.72;1748948;82;20965;-42
2022/07/13 03:44:13;;;;;;;2.10;0.78;;;;;;;14.57;75.42;98425.95;1748941;82;21012;-42
2022/07/13 03:46:40;;;;;;;1.80;1.00;;;;;;;14.52;75.71;98431.86;1748870;82;21224;-42
2022/07/13 03:49:08;;;;;;;2.67;0.80;;;;;;;14.46;75.92;98434.84;1721327;82;21052;-42
2022/07/13 03:51:38;;;;;;;2.37;0.90;;;;;;;14.51;76.17;98426.22;1749012;82;20981;-42
2022/07/13 03:54:05;;;;;;;1.05;0.72;;;;;;;14.48;76.26;98425.06;1748888;82;21100;-42
2022/07/13 03:56:33;;;;;;;0.88;0.72;;;;;;;14.47;76.56;98422.77;1748964;82;21026;-42
2022/07/13 03:59:00;;;;;;;2.12;0.90;;;;;;;14.45;76.81;98429.20;1749037;82;21097;-42
2022/07/13 04:01:27;;;;;;;1.37;0.95;;;;;;;14.46;77.03;98428.03;1748775;82;21501;-42
2022/07/13 04:03:55;;;;;;;0.98;0.68;;;;;;;14.43;77.13;98424.15;1748834;82;21000;-42
2022/07/13 04:06:25;;;;;;;3.35;0.60;;;;;;;14.43;77.17;98419.28;1748900;82;20961;-42
2022/07/13 04:08:52;;;;;;;1.62;0.80;;;;;;;14.47;77.05;98420.81;1731321;82;21033;-42
2022/07/13 04:11:19;;;;;;;3.22;1.00;;;;;;;14.50;76.97;98418.63;1748937;82;21417;-42
2022/07/13 04:13:47;;;;;;;0.68;0.68;;;;;;;14.49;77.13;98420.39;1710582;83;20964;-42
2022/07/13 04:16:15;;;;;;;3.35;0.90;;;;;;;14.48;77.14;98419.61;1710810;83;20933;-42
2022/07/13 04:18:42;;;;;;;1.67;0.75;;;;;;;14.49;77.10;98410.84;1710783;83;20937;-42
2022/07/13 04:21:11;;;;;;;2.30;0.80;;;;;;;14.52;77.14;98416.86;1710564;83;21064;-42
2022/07/13 04:23:39;;;;;;;2.12;0.88;;;;;;;14.51;77.18;98413.36;1710799;83;21138;-42
2022/07/13 04:26:06;;;;;;;1.67;0.65;;;;;;;14.53;77.04;98397.93;1710589;83;20953;-42
2022/07/13 04:28:34;;;;;;;1.27;0.80;;;;;;;14.57;77.04;98411.70;1710662;83;21487;-42
2022/07/13 04:31:02;;;;;;;1.10;0.80;;;;;;;14.54;76.78;98404.34;1734104;81;20914;-43
2022/07/13 04:33:31;;;;;;;2.02;0.70;;;;;;;14.54;76.93;98402.98;1720482;83;21048;-42
2022/07/13 04:35:58;;;;;;;1.22;0.75;;;;;;;14.57;77.12;98407.61;1720792;83;21121;-42
2022/07/13 04:38:25;;;;;;;0.60;0.60;;;;;;;14.64;77.20;98413.58;1720644;83;20968;-42
2022/07/13 04:40:52;;;;;;;0.93;0.60;;;;;;;14.66;76.84;98409.86;1720623;83;21467;-42
2022/07/13 04:43:20;;;;;;;1.70;0.80;;;;;;;14.65;77.02;98406.95;1720557;83;21099;-42
2022/07/13 04:45:47;;;;;;;0.62;0.60;;;;;;;14.64;77.20;98401.30;1720667;83;21028;-42
2022/07/13 04:48:15;;;;;;;3.10;0.82;;;;;;;14.68;77.36;98404.76;1720637;83;21198;-42
2022/07/13 04:50:42;;;;;;;3.45;0.70;;;;;;;14.71;77.31;98405.32;1720660;83;21471;-42
2022/07/13 04:53:09;;;;;;;1.90;0.80;;;;;;;14.72;77.37;98395.92;1720776;83;21008;-42
2022/07/13 04:55:39;;;;;;;2.15;0.60;;;;;;;14.69;77.24;98403.58;1720848;83;20948;-42
2022/07/13 04:58:07;;;;;;;1.92;0.85;;;;;;;14.73;77.54;98404.30;1720964;83;21001;-42
2022/07/13 05:00:37;;;;;;;2.15;0.78;;;;;;;14.77;77.79;98399.56;1720655;83;23119;-42
2022/07/13 05:03:04;;;;;;;;;;;;;;;14.75;77.95;98395.91;1723447;83;21660;-42
2022/07/13 05:05:32;;;;;;;0.95;0.70;;;;;;;14.75;78.47;98397.27;1702712;84;20178;-43
2022/07/13 05:08:00;;;;;;;0.90;0.70;;;;;;;14.74;78.48;98405.85;1702698;84;21002;-42
2022/07/13 05:10:30;;;;;;;0.93;0.80;;;;;;;14.76;78.52;98395.31;1702919;84;25583;-42
2022/07/13 05:12:57;;;;;;;2.27;0.70;;;;;;;14.78;78.82;98395.66;1702832;84;21607;-42
2022/07/13 05:15:25;;;;;;;0.72;0.60;;;;;;;14.78;78.62;98397.02;1702762;84;21535;-42
2022/07/13 05:17:53;;;;;;;0.70;0.62;;;;;;;14.78;78.75;98405.98;1702832;84;21044;-42
2022/07/13 05:20:22;;;;;;;1.42;0.80;;;;;;;14.76;78.63;98396.68;1702511;84;21113;-42
2022/07/13 05:22:51;;;;;;;0.88;0.60;;;;;;;14.73;79.02;98397.48;1702448;84;21576;-42
2022/07/13 05:25:20;;;;;;;1.57;0.70;;;;;;;14.71;79.22;98402.59;1702562;84;21236;-42
2022/07/13 05:27:47;;;;;;;0.78;0.70;;;;;;;14.73;79.34;98385.98;1702849;84;21575;-42
2022/07/13 05:30:14;;;;;;;2.15;0.60;;;;;;;14.76;79.35;98396.68;1702631;84;21052;-42
2022/07/13 05:32:42;;;;;;;1.77;0.80;;;;;;;14.76;79.70;98392.59;1700852;84;21011;-42
2022/07/13 05:35:09;;;;;;;0.70;0.53;;;;;;;14.75;79.76;98401.95;1707527;84;21101;-42
2022/07/13 05:37:37;;;;;;;1.40;0.68;;;;;;;14.78;79.83;98390.98;1707501;83;21137;-42
2022/07/13 05:40:06;;;;;;;1.55;0.70;;;;;;;14.82;79.59;98398.33;1707469;84;21028;-42
2022/07/13 05:42:33;;;;;;;1.77;0.80;;;;;;;14.79;79.63;98393.12;1707453;84;21101;-42
2022/07/13 05:45:01;;;;;;;0.62;0.45;;;;;;;14.79;80.03;98394.48;1707452;84;21109;-42
2022/07/13 05:47:29;;;;;;;0.62;0.60;;;;;;;14.85;79.84;98398.89;1707529;84;20984;-42
2022/07/13 05:49:57;;;;;;;2.58;0.80;;;;;;;14.85;80.07;98390.12;1707478;84;21241;-43
2022/07/13 05:52:25;;;;;;;1.17;0.60;;;;;;;14.84;80.54;98389.94;1707460;83;21033;-43
2022/07/13 05:54:54;;;;;;;0.82;0.40;;;;;;;14.83;80.87;98395.20;1707628;83;21001;-42
2022/07/13 05:57:21;;;;;;;0.72;0.60;;;;;;;14.89;80.60;98393.56;1707803;84;21564;-42
2022/07/13 05:59:48;;;;;;;0.60;0.60;;;;;;;14.94;80.52;98396.42;1707504;84;20994;-42
2022/07/13 06:02:15;;;;;;;1.57;0.55;;;;;;;14.95;80.54;98400.12;1707245;83;23135;-43
2022/07/13 06:04:43;;;;;;;0.93;0.60;;;;;;;14.96;80.53;98403.00;1707510;83;21017;-43
2022/07/13 06:07:10;;;;;;;0.75;0.65;;;;;;;14.99;80.30;98402.79;1702718;84;20946;-43
2022/07/13 06:09:38;;;;;;;1.57;0.70;;;;;;;15.00;80.14;98402.39;1707575;83;20998;-43
2022/07/13 06:12:06;;;;;;;0.90;0.70;;;;;;;15.00;80.24;98395.56;1707342;84;21042;-42
2022/07/13 06:14:33;;;;;;;1.15;0.70;;;;;;;14.98;80.24;98393.05;1707583;84;21235;-42
2022/07/13 06:17:00;;;;;;;1.47;0.60;;;;;;;14.97;80.46;98396.37;1707374;84;20950;-42
2022/07/13 06:19:27;;;;;;;0.70;0.60;;;;;;;14.97;80.44;98390.91;1707424;84;20938;-43
2022/07/13 06:21:56;;;;;;;0.50;0.50;;;;;;;15.00;80.70;98393.42;1707763;83;21159;-43
2022/07/13 06:24:23;;;;;;;0.80;0.55;;;;;;;14.98;80.88;98401.23;1702856;84;21113;-43
2022/07/13 06:26:50;;;;;;;1.90;0.60;;;;;;;14.98;81.00;98388.36;1707611;84;21127;-43
2022/07/13 06:29:17;;;;;;;1.82;0.50;;;;;;;15.03;80.98;98397.45;1707287;83;21543;-42
2022/07/13 06:31:44;;;;;;;0.68;0.50;;;;;;;15.06;81.05;98399.34;1706957;84;21025;-43
2022/07/13 06:34:11;;;;;;;6.40;0.70;;;;;;;15.10;80.97;98387.03;1699826;84;21030;-42
2022/07/13 06:36:38;;;;;;;2.25;0.80;;;;;;;15.07;80.94;98391.34;1699940;84;21022;-43
2022/07/13 06:39:05;;;;;;;0.88;0.60;;;;;;;15.05;81.19;98384.19;1699945;83;21319;-42
2022/07/13 06:41:32;;;;;;;1.42;0.80;;;;;;;15.04;81.32;98386.72;1699762;84;20951;-43
2022/07/13 06:43:59;;;;;;;0.60;0.50;;;;;;;15.06;81.28;98389.80;1699950;83;21535;-42
2022/07/13 06:46:26;;;;;;;2.40;0.50;;;;;;;14.79;81.25;98353.55;1699955;84;21019;-42
2022/07/13 06:48:53;;;;;;;1.00;0.40;;;;;;;15.05;81.26;98398.42;1699937;84;20970;-43
2022/07/13 06:51:20;;;;;;;1.55;0.40;;;;;;;15.06;81.42;98394.48;1699743;84;23200;-43
2022/07/13 06:53:49;;;;;;;2.45;0.50;;;;;;;15.08;81.51;98394.86;1699836;84;20989;-42
2022/07/13 06:56:16;;;;;;;0.68;0.50;;;;;;;15.06;81.52;98389.80;1699864;84;21022;-42
2022/07/13 06:58:44;;;;;;;0.70;0.50;;;;;;;15.02;81.78;98404.09;1699865;83;20993;-42
2022/07/13 07:01:11;;;;;;;0.88;0.50;;;;;;;15.04;81.53;98394.14;1699876;83;21516;-43
2022/07/13 07:03:38;;;;;;;0.40;0.20;;;;;;;15.05;81.64;98395.10;1699754;84;23192;-43
2022/07/13 07:06:05;;;;;;;0.68;0.55;;;;;;;15.08;81.50;98397.58;1699637;84;20974;-43
2022/07/13 07:08:34;;;;;;;3.47;0.42;;;;;;;15.10;81.67;98410.98;1699896;83;21038;-43
2022/07/13 07:11:01;;;;;;;0.30;0.20;;;;;;;15.12;81.47;98403.17;1699700;83;21058;-43
2022/07/13 07:13:28;;;;;;;1.65;0.50;;;;;;;15.14;81.26;98396.72;1699921;84;21058;-43
2022/07/13 07:15:55;;;;;;;1.00;0.40;;;;;;;15.20;81.33;98397.03;1699901;83;21242;-43
2022/07/13 07:18:22;;;;;;;0.33;0.20;;;;;;;15.21;81.15;98391.13;1699916;84;21517;-43
2022/07/13 07:20:49;;;;;;;1.52;0.45;;;;;;;15.18;81.36;98393.34;1700026;84;21017;-43
2022/07/13 07:23:16;;;;;;;1.20;0.30;;;;;;;15.20;81.44;98406.58;1699830;83;21029;-43
2022/07/13 07:25:43;;;;;;;1.50;0.20;;;;;;;15.21;81.63;98406.16;1699947;83;21054;-42
2022/07/13 07:28:11;;;;;;;2.50;0.30;;;;;;;15.25;81.60;98396.53;1699873;84;21233;-43
2022/07/13 07:30:39;;;;;;;0.35;0.35;;;;;;;15.29;81.64;98395.91;1699775;84;21050;-43
2022/07/13 07:33:06;;;;;;;0.15;0.10;;;;;;;15.29;81.32;98410.16;1699612;84;21066;-43
2022/07/13 07:35:33;;;;;;;0.60;0.23;;;;;;;15.29;81.09;98410.93;1699800;83;21042;-43
2022/07/13 07:38:02;;;;;;;0.60;0.20;;;;;;;15.31;81.11;98416.73;1699777;83;21619;-43
2022/07/13 07:40:29;;;;;;;0.55;0.35;;;;;;;15.31;81.00;98414.59;1700177;83;21214;-43
2022/07/13 07:42:56;;;;;;;0.33;0.20;;;;;;;15.31;81.21;98413.23;1699935;84;20955;-43
2022/07/13 07:45:24;;;;;;;0.95;0.80;;;;;;;15.28;80.89;98417.57;1699777;83;21038;-42
2022/07/13 07:47:50;;;;;;;0.30;0.20;;;;;;;15.26;81.13;98416.42;1699894;84;21101;-43
2022/07/13 07:50:17;;;;;;;0.55;0.40;;;;;;;15.25;81.29;98422.47;1699799;83;21108;-43
2022/07/13 07:52:45;;;;;;;0.30;0.30;;;;;;;15.29;81.40;98415.61;1699849;83;21294;-43
2022/07/13 07:55:12;;;;;;;0.20;0.20;;;;;;;15.33;81.22;98411.64;1699804;84;21581;-43
2022/07/13 07:57:46;;;;;;;0.17;0.13;;;;;;;15.36;81.03;98415.48;1700034;83;21547;-43
2022/07/13 08:00:14;;;;;;;0.47;0.30;;;;;;;15.34;81.01;98421.98;1700023;84;21093;-43
2022/07/13 08:02:41;;;;;;;0.47;0.28;;;;;;;15.32;81.11;98420.23;1699788;84;21082;-42
2022/07/13 08:05:09;;;;;;;0.13;0.13;;;;;;;15.34;81.24;98420.61;1699787;84;21350;-43
2022/07/13 08:07:44;;;;;;;0.68;0.25;;;;;;;15.38;81.44;98409.81;1699787;84;20951;-43
2022/07/13 08:10:12;;;;;;;1.75;0.35;;;;;;;15.41;81.24;98421.26;1700109;84;20955;-43
2022/07/13 08:12:40;;;;;;;0.93;0.20;;;;;;;15.41;81.15;98425.95;1699806;84;21089;-43
2022/07/13 08:15:08;;;;;;;0.13;0.13;;;;;;;15.41;81.16;98418.53;1699630;83;21050;-43
2022/07/13 08:17:37;;;;;;;0.10;0.10;;;;;;;15.45;81.19;98414.37;1699871;84;21137;-43
2022/07/13 08:20:06;;;;;;;0.20;0.17;;;;;;;15.48;80.98;98413.56;1699770;83;21302;-43
2022/07/13 08:22:33;;;;;;;0.57;0.30;;;;;;;15.54;81.12;98418.77;1700440;83;20981;-43
2022/07/13 08:25:00;;;;;;;0.75;0.25;;;;;;;15.57;80.84;98418.70;1699852;84;21702;-43
2022/07/13 08:27:27;;;;;;;1.00;0.20;;;;;;;15.61;80.87;98415.31;1699920;84;21050;-43
2022/07/13 08:29:55;;;;;;;0.20;0.20;;;;;;;15.70;80.75;98418.09;1699876;84;21246;-43
2022/07/13 08:32:22;;;;;;;0.30;0.30;;;;;;;15.80;80.67;98413.05;1699661;84;20950;-43
2022/07/13 08:40:20;;;;;;;0.28;0.28;;;;;;;15.95;80.54;98399.30;1699850;84;21568;-42
2022/07/13 08:42:47;;;;;;;0.20;0.20;;;;;;;16.03;79.53;98400.71;1699896;83;21508;-43
2022/07/13 08:48:18;;;;;;;0.30;0.30;;;;;;;16.22;79.57;98414.22;1849665;76;22461;-42
2022/07/13 08:50:45;;;;;;;0.30;0.30;;;;;;;16.15;79.37;98418.48;1817911;79;20942;-42
2022/07/13 08:53:12;;;;;;;1.85;0.30;;;;;;;16.17;79.11;98425.67;1817679;79;23147;-43
2022/07/13 08:55:40;;;;;;;2.08;0.57;;;;;;;16.23;78.61;98419.88;1817605;79;21487;-43
2022/07/13 08:58:09;;;;;;;2.15;0.40;;;;;;;16.27;78.57;98417.25;1817850;79;20962;-43
2022/07/13 09:00:36;;;;;;;1.85;0.50;;;;;;;16.27;78.33;98413.14;1817820;79;20892;-43
2022/07/13 09:03:03;;;;;;;0.60;0.30;;;;;;;16.27;78.48;98415.87;1817741;79;20958;-43
2022/07/13 09:05:30;;;;;;;0.90;0.50;;;;;;;16.29;77.76;98426.41;1817963;79;21226;-43
2022/07/13 09:08:06;;;;;;;0.40;0.40;;;;;;;16.32;77.88;98416.77;1817560;79;21530;-43
2022/07/13 09:10:54;;;;;;;0.68;0.30;;;;;;;16.31;77.59;98407.63;1818288;79;21540;-43
2022/07/13 09:13:41;;;;;;;0.78;0.40;;;;;;;16.28;77.52;98408.45;1816858;79;21626;-43
2022/07/13 09:16:21;;;;;;;0.40;0.40;;;;;;;16.26;77.70;98395.81;1818022;79;20931;-43
2022/07/13 09:18:53;;;;;;;0.72;0.53;;;;;;;16.28;77.94;98400.25;1818182;79;21433;-42
2022/07/13 09:21:21;;;;;;;1.75;0.55;;;;;;;16.28;77.67;98411.96;1817713;79;21005;-43
2022/07/13 09:23:51;;;;;;;0.60;0.40;;;;;;;16.28;77.65;98415.28;1817965;79;20915;-43
2022/07/13 09:26:18;;;;;;;1.12;0.53;;;;;;;16.27;77.90;98417.84;1811792;79;21473;-42
2022/07/13 09:28:47;;;;;;;0.57;0.42;;;;;;;16.30;77.36;98418.39;1817909;79;21014;-43
2022/07/13 09:31:14;;;;;;;1.52;0.70;;;;;;;16.30;77.28;98419.16;1818033;79;21078;-43
2022/07/13 09:33:46;;;;;;;1.60;0.50;;;;;;;16.29;77.46;98419.57;1817763;79;20986;-42
2022/07/13 09:36:22;;;;;;;0.53;0.40;;;;;;;16.28;77.15;98411.19;1817789;79;20966;-43
2022/07/13 09:38:53;;;;;;;1.42;0.50;;;;;;;16.34;77.28;98408.92;1817731;79;20974;-42
2022/07/13 09:41:26;;;;;;;0.70;0.50;;;;;;;16.40;77.45;98417.41;1817769;79;21018;-43
2022/07/13 09:47:05;;;;;;;0.30;0.30;;;;;;;16.41;76.57;98414.23;1817525;78;21481;-42
2022/07/13 09:49:43;;;;;;;0.60;0.40;;;;;;;16.40;76.82;98411.94;1817910;79;20922;-42
2022/07/13 09:52:13;;;;;;;0.40;0.40;;;;;;;16.39;76.96;98411.17;1816782;79;21086;-43
2022/07/13 09:54:42;;;;;;;0.50;0.50;;;;;;;16.41;77.18;98414.86;1817838;79;21034;-43
2022/07/13 09:57:13;;;;;;;0.55;0.50;;;;;;;16.41;76.54;98409.39;1818098;79;21882;-43
2022/07/13 09:59:42;;;;;;;2.08;0.53;;;;;;;16.41;77.12;98403.91;1817479;79;20958;-43
2022/07/13 10:02:10;;;;;;;1.35;0.50;;;;;;;16.38;76.89;98414.31;1817036;79;21026;-43
2022/07/13 10:04:38;;;;;;;1.70;0.50;;;;;;;16.44;76.88;98411.27;1817266;79;21575;-42
2022/07/13 10:07:06;;;;;;;0.90;0.62;;;;;;;16.45;76.38;98407.34;1817143;79;21085;-43
2022/07/13 10:09:38;;;;;;;0.62;0.57;;;;;;;16.45;76.14;98400.51;1817230;79;21113;-42
2022/07/13 10:12:12;;;;;;;2.58;0.57;;;;;;;16.43;76.22;98398.78;1788916;79;21026;-43
2022/07/13 10:14:38;;;;;;;1.10;0.53;;;;;;;16.44;76.61;98403.06;1816689;78;20954;-42
2022/07/13 10:17:14;;;;;;;0.50;0.50;;;;;;;16.43;76.78;98396.04;1817038;79;20954;-42
2022/07/13 10:19:50;;;;;;;0.60;0.60;;;;;;;16.40;76.57;98398.27;1820777;78;21064;-43
2022/07/13 10:22:21;;;;;;;1.62;0.60;;;;;;;16.38;76.86;98410.98;1825740;78;21177;-43
2022/07/13 10:25:00;;;;;;;0.78;0.50;;;;;;;16.34;77.25;98401.30;1825869;78;20992;-42
2022/07/13 10:27:32;;;;;;;2.95;0.60;;;;;;;16.34;77.44;98408.14;1825815;78;20956;-42
2022/07/13 10:30:02;;;;;;;0.50;0.50;;;;;;;16.36;77.51;98401.05;1825905;78;20948;-43
2022/07/13 10:32:30;;;;;;;;;;;;;;;16.38;77.56;98407.47;1828570;78;21526;-43
2022/07/13 10:35:12;;;;;;;1.22;0.60;;;;;;;16.38;77.79;98413.72;1826040;78;21726;-42
2022/07/13 10:38:08;;;;;;;0.90;0.53;;;;;;;16.33;78.17;98412.06;1825740;78;21533;-43
2022/07/13 10:40:40;;;;;;;0.57;0.57;;;;;;;16.38;78.22;98418.41;1825992;78;20972;-43
2022/07/13 10:43:09;;;;;;;2.02;0.70;;;;;;;16.41;77.31;98423.06;1789212;80;21012;-42
2022/07/13 10:45:43;;;;;;;1.15;0.60;;;;;;;16.45;77.12;98401.88;1789474;80;20949;-43
2022/07/13 10:48:34;;;;;;;1.05;0.50;;;;;;;16.48;77.45;98400.42;1789387;79;21778;-43
2022/07/13 10:50:59;;;;;;;1.40;0.70;;;;;;;16.49;77.25;98412.14;1788685;80;20912;-43
2022/07/13 10:53:45;;;;;;;0.75;0.60;;;;;;;16.49;76.80;98410.78;1789523;80;21031;-42
2022/07/13 10:56:19;;;;;;;1.05;0.50;;;;;;;16.48;76.74;98411.97;1789201;80;21340;-43
2022/07/13 10:58:50;;;;;;;1.70;0.60;;;;;;;16.44;77.23;98415.37;1789425;80;21569;-43
2022/07/13 11:01:44;;;;;;;1.20;0.60;;;;;;;16.39;77.39;98400.81;1789342;80;21130;-42
2022/07/13 11:04:15;;;;;;;0.40;0.40;;;;;;;16.37;77.67;98406.70;1789367;80;20956;-42
2022/07/13 11:07:07;;;;;;;0.40;0.40;;;;;;;16.40;78.00;98401.00;1789168;80;20951;-43
2022/07/13 11:09:34;;;;;;;2.60;0.60;;;;;;;16.48;78.26;98395.55;1789422;80;21024;-43
2022/07/13 11:12:02;;;;;;;0.68;0.50;;;;;;;16.55;78.24;98400.12;1783514;80;20992;-43
2022/07/13 11:14:47;;;;;;;0.40;0.33;;;;;;;16.58;78.43;98400.06;1759375;80;21180;-43
2022/07/13 11:17:17;;;;;;;2.08;0.60;;;;;;;16.63;78.65;98398.20;1789181;80;21469;-43
2022/07/13 11:20:09;;;;;;;0.65;0.30;;;;;;;16.64;77.80;98401.13;1789330;80;21486;-43
2022/07/13 11:25:35;;;;;;;0.40;0.40;;;;;;;16.59;78.55;98404.34;1789329;80;20968;-43
2022/07/13 11:28:22;;;;;;;1.25;0.40;;;;;;;16.59;78.40;98398.11;1789288;80;21144;-43
2022/07/13 11:30:54;;;;;;;0.82;0.42;;;;;;;16.53;78.36;98409.52;1788931;80;20952;-43
2022/07/13 11:33:21;;;;;;;0.40;0.40;;;;;;;16.44;79.05;98407.17;1789559;80;21015;-43
2022/07/13 11:35:49;;;;;;;0.42;0.37;;;;;;;16.45;79.35;98401.88;1789368;80;21482;-43
2022/07/13 11:38:16;;;;;;;0.42;0.30;;;;;;;16.47;79.47;98405.72;1758783;80;21079;-43
2022/07/13 11:40:44;;;;;;;0.37;0.30;;;;;;;16.45;79.27;98398.55;1789434;80;21197;-43
2022/07/13 11:43:12;;;;;;;0.30;0.30;;;;;;;16.42;79.90;98409.54;1789251;80;20916;-43
2022/07/13 11:45:40;;;;;;;1.95;0.53;;;;;;;16.38;80.02;98403.37;1789164;80;20995;-43
2022/07/13 11:48:13;;;;;;;0.37;0.37;;;;;;;16.38;80.45;98391.06;1789027;80;20952;-43
2022/07/13 11:50:47;;;;;;;0.75;0.40;;;;;;;16.37;80.56;98406.70;1789215;79;21078;-43
2022/07/13 11:53:29;;;;;;;1.10;0.40;;;;;;;16.37;80.33;98407.30;1789321;80;21228;-43
2022/07/13 11:56:01;;;;;;;1.92;0.60;;;;;;;16.34;80.42;98408.92;1789215;80;20967;-43